Craig, Alaska
Current Conditions -  °F | °C
As of 7:17 AM on Monday 24 Nov 2014 (Local Time) from PAKW Reporting Station
Overcast Overcast  
Wind Chill: 39°   Ceiling: 4000
Heat Index: 43°   Visibility: 10mi
Dew Point: 40°   Wind: 7mph
Humidity: 89%   Direction: 180°S
Pressure: 29.74"   Gusts: NA
Location:  55.47°N, 133.13°W
Report Text: PAKW 241617Z AUTO 18006KT 10SM SCT027 OVC040 06/04 A2974 RMK AO2 RAE1558 P0000 T00610044 TSNO $
Loading
Personal Weather Stations






























Interactive Weather Map New forecast layout! Learn more

10-Day Weather Forecast

Advertisements
Track Severe Weather on mobile